Time;durP1;ratioP1;P1;durP2;ratioP2;P2;SDS_P1;SDS_P2;PMS_P1;PMS_P2;Temp;Humidity;BMP_temperature;BMP_pressure;BME280_temperature;BME280_humidity;BME280_pressure;Samples;Min_cycle;Max_cycle;Signal;HPM_P1;HPM_P2
2022/12/16 00:02:23;;;;;;;47.35;15.55;;;;;;;;;;5048819;28;20618;-75
2022/12/16 00:04:49;;;;;;;39.40;14.23;;;;;;;;;;5050276;28;20048;-77
2022/12/16 00:07:16;;;;;;;45.63;14.13;;;;;;;;;;5051381;28;20080;-77
2022/12/16 00:09:42;;;;;;;45.95;14.45;;;;;;;;;;5049724;28;20052;-77
2022/12/16 00:12:08;;;;;;;50.80;17.20;;;;;;;;;;5050742;28;20118;-77
2022/12/16 00:14:35;;;;;;;39.75;13.10;;;;;;;;;;5049228;28;20059;-76
2022/12/16 00:17:01;;;;;;;36.20;12.85;;;;;;;;;;5067506;28;20226;-77
2022/12/16 00:19:27;;;;;;;33.42;12.27;;;;;;;;;;5050035;28;20055;-77
2022/12/16 00:21:54;;;;;;;36.97;12.82;;;;;;;;;;5051411;28;20620;-77
2022/12/16 00:24:20;;;;;;;38.03;13.68;;;;;;;;;;5050332;28;20044;-77
2022/12/16 00:26:47;;;;;;;37.90;13.10;;;;;;;;;;5051218;28;20584;-78
2022/12/16 00:29:13;;;;;;;34.35;12.43;;;;;;;;;;5050605;28;20049;-75
2022/12/16 00:31:39;;;;;;;35.88;13.45;;;;;;;;;;5049731;28;20053;-74
2022/12/16 00:34:06;;;;;;;34.55;13.18;;;;;;;;;;5050226;28;20076;-77
2022/12/16 00:36:33;;;;;;;31.60;11.80;;;;;;;;;;5050408;28;20551;-77
2022/12/16 00:38:59;;;;;;;28.40;11.20;;;;;;;;;;5032960;28;20132;-77
2022/12/16 00:41:26;;;;;;;36.25;11.98;;;;;;;;;;5051263;28;20052;-76
2022/12/16 00:43:52;;;;;;;34.20;12.25;;;;;;;;;;5049533;28;20049;-77
2022/12/16 00:46:19;;;;;;;33.47;11.77;;;;;;;;;;5050008;28;20052;-77
2022/12/16 00:48:46;;;;;;;29.98;10.40;;;;;;;;;;5050440;28;20080;-77
2022/12/16 00:51:13;;;;;;;28.45;11.63;;;;;;;;;;5050451;28;20055;-76
2022/12/16 00:53:39;;;;;;;31.60;11.23;;;;;;;;;;5050440;28;20045;-77
2022/12/16 00:56:07;;;;;;;29.55;10.55;;;;;;;;;;5052593;28;20124;-77
2022/12/16 00:58:34;;;;;;;37.10;11.32;;;;;;;;;;5051321;28;20044;-77
2022/12/16 01:01:01;;;;;;;30.15;11.23;;;;;;;;;;5059542;28;20520;-78
2022/12/16 01:03:28;;;;;;;32.38;12.10;;;;;;;;;;5070833;28;20044;-78
2022/12/16 01:05:54;;;;;;;31.65;11.07;;;;;;;;;;5071460;28;20125;-77
2022/12/16 01:08:21;;;;;;;29.48;10.55;;;;;;;;;;5074031;28;20058;-76
2022/12/16 01:10:51;;;;;;;29.00;10.35;;;;;;;;;;5073308;28;20053;-77
2022/12/16 01:13:18;;;;;;;29.77;11.15;;;;;;;;;;5073319;28;20059;-75
2022/12/16 01:15:44;;;;;;;31.08;10.82;;;;;;;;;;5076271;28;20041;-78
2022/12/16 01:18:11;;;;;;;28.73;10.60;;;;;;;;;;5069771;28;20051;-77
2022/12/16 01:20:37;;;;;;;28.00;11.07;;;;;;;;;;5059843;28;20061;-76
2022/12/16 01:23:04;;;;;;;30.45;10.75;;;;;;;;;;5049283;28;20766;-77
2022/12/16 01:25:30;;;;;;;27.38;10.45;;;;;;;;;;5049488;28;20052;-76
2022/12/16 01:27:57;;;;;;;37.20;10.75;;;;;;;;;;5048955;28;20060;-77
2022/12/16 01:30:23;;;;;;;29.77;11.20;;;;;;;;;;5049783;28;20051;-77
2022/12/16 01:32:50;;;;;;;23.25;10.02;;;;;;;;;;5050057;28;20049;-77
2022/12/16 01:35:17;;;;;;;27.33;10.48;;;;;;;;;;5050411;28;20083;-76
2022/12/16 01:38:03;;;;;;;29.23;10.68;;;;;;;;;;5050050;28;20464;-77
2022/12/16 01:40:30;;;;;;;33.50;12.52;;;;;;;;;;5049236;28;20055;-77
2022/12/16 01:42:56;;;;;;;35.88;11.63;;;;;;;;;;5049329;28;20049;-77
2022/12/16 01:45:29;;;;;;;34.95;12.43;;;;;;;;;;5048718;28;20052;-77
2022/12/16 01:47:57;;;;;;;30.17;11.10;;;;;;;;;;5065322;28;20059;-76
2022/12/16 01:50:24;;;;;;;32.38;11.45;;;;;;;;;;5050476;28;20066;-77
2022/12/16 01:52:54;;;;;;;32.00;12.02;;;;;;;;;;5068886;28;20048;-77
2022/12/16 01:55:23;;;;;;;32.95;12.00;;;;;;;;;;5069344;28;20051;-76
2022/12/16 01:57:59;;;;;;;33.70;11.80;;;;;;;;;;5069112;28;20520;-78
2022/12/16 02:00:25;;;;;;;35.05;12.48;;;;;;;;;;5069820;28;20048;-78
2022/12/16 02:02:52;;;;;;;33.97;11.43;;;;;;;;;;5068758;28;20079;-78
2022/12/16 02:05:20;;;;;;;31.67;11.48;;;;;;;;;;5051807;28;20555;-77
2022/12/16 02:08:10;;;;;;;35.85;12.02;;;;;;;;;;5052434;28;20396;-77
2022/12/16 02:10:36;;;;;;;39.90;12.05;;;;;;;;;;5058110;28;20121;-79
2022/12/16 02:13:14;;;;;;;31.83;11.05;;;;;;;;;;5070027;28;20496;-78
2022/12/16 02:15:46;;;;;;;35.58;11.98;;;;;;;;;;5068925;28;20054;-78
2022/12/16 02:18:25;;;;;;;37.42;12.75;;;;;;;;;;5067595;28;20068;-77
2022/12/16 02:20:54;;;;;;;35.33;12.40;;;;;;;;;;5057991;28;20286;-78
2022/12/16 02:23:25;;;;;;;33.55;11.65;;;;;;;;;;5056411;28;20067;-78
2022/12/16 02:26:00;;;;;;;38.53;12.82;;;;;;;;;;5055615;28;20049;-78
2022/12/16 02:28:29;;;;;;;30.17;11.88;;;;;;;;;;5050170;28;20049;-77
2022/12/16 02:31:05;;;;;;;34.97;13.10;;;;;;;;;;5048305;28;20073;-77
2022/12/16 02:33:43;;;;;;;41.30;14.20;;;;;;;;;;5048260;28;20049;-77
2022/12/16 02:36:20;;;;;;;32.25;12.20;;;;;;;;;;5049856;28;20613;-77
2022/12/16 02:38:54;;;;;;;28.52;11.23;;;;;;;;;;5049220;28;20051;-77
2022/12/16 02:41:30;;;;;;;34.72;13.15;;;;;;;;;;5048554;28;20088;-77
2022/12/16 02:44:02;;;;;;;36.35;12.48;;;;;;;;;;5048727;28;20049;-77
2022/12/16 02:46:31;;;;;;;39.25;14.50;;;;;;;;;;5048911;28;20049;-77
2022/12/16 02:49:13;;;;;;;38.25;14.82;;;;;;;;;;5049226;28;20139;-78
2022/12/16 02:51:40;;;;;;;40.38;14.27;;;;;;;;;;5049624;28;20152;-75
2022/12/16 02:54:07;;;;;;;44.17;15.90;;;;;;;;;;5050311;28;20041;-78
2022/12/16 02:56:52;;;;;;;47.67;16.02;;;;;;;;;;5052120;28;20051;-77
2022/12/16 02:59:37;;;;;;;45.65;15.88;;;;;;;;;;5070116;28;20633;-77
2022/12/16 03:02:08;;;;;;;44.92;15.73;;;;;;;;;;5070067;28;20087;-77
2022/12/16 03:04:47;;;;;;;51.80;16.85;;;;;;;;;;5068661;28;20058;-76
2022/12/16 03:07:16;;;;;;;51.03;18.02;;;;;;;;;;5070218;28;20056;-76
2022/12/16 03:09:44;;;;;;;44.58;17.02;;;;;;;;;;5069477;28;20048;-77
2022/12/16 03:12:12;;;;;;;55.08;17.55;;;;;;;;;;5071075;28;20044;-78
2022/12/16 03:14:40;;;;;;;49.78;17.65;;;;;;;;;;5071634;28;20049;-78
2022/12/16 03:17:07;;;;;;;52.22;18.90;;;;;;;;;;5063041;28;20648;-76
2022/12/16 03:19:36;;;;;;;57.80;19.73;;;;;;;;;;5069742;28;20045;-77
2022/12/16 03:22:23;;;;;;;54.08;19.33;;;;;;;;;;5070371;28;20056;-77
2022/12/16 03:24:50;;;;;;;48.85;18.70;;;;;;;;;;5071451;28;20044;-76
2022/12/16 03:27:19;;;;;;;52.30;19.15;;;;;;;;;;5069676;28;20056;-75
2022/12/16 03:29:51;;;;;;;50.78;18.45;;;;;;;;;;5069361;28;20063;-78
2022/12/16 03:32:20;;;;;;;57.47;19.58;;;;;;;;;;5069680;28;20059;-77
2022/12/16 03:34:58;;;;;;;50.70;18.42;;;;;;;;;;5072531;28;20448;-77
2022/12/16 03:37:27;;;;;;;56.22;19.17;;;;;;;;;;5072144;28;20246;-78
2022/12/16 03:39:56;;;;;;;53.05;19.58;;;;;;;;;;5075826;28;20140;-78
2022/12/16 03:42:24;;;;;;;57.25;19.70;;;;;;;;;;5077000;28;20067;-78
2022/12/16 03:44:50;;;;;;;63.85;21.33;;;;;;;;;;5077407;28;20056;-78
2022/12/16 03:47:17;;;;;;;58.70;20.55;;;;;;;;;;5080203;28;20044;-78
2022/12/16 03:49:49;;;;;;;61.53;21.23;;;;;;;;;;5076948;28;20056;-77
2022/12/16 03:52:16;;;;;;;59.78;20.65;;;;;;;;;;5079115;28;20514;-77
2022/12/16 03:54:42;;;;;;;56.40;20.92;;;;;;;;;;5079086;28;20419;-77
2022/12/16 03:57:08;;;;;;;62.70;21.13;;;;;;;;;;5074638;28;20067;-77
2022/12/16 03:59:40;;;;;;;52.30;19.77;;;;;;;;;;5073287;28;20079;-78
2022/12/16 04:02:07;;;;;;;55.15;20.10;;;;;;;;;;5073465;28;20044;-77
2022/12/16 04:04:33;;;;;;;54.28;19.70;;;;;;;;;;5072407;28;20076;-77
2022/12/16 04:09:46;;;;;;;53.95;19.63;;;;;;;;;;5074078;28;20484;-77
2022/12/16 04:26:26;;;;;;;49.92;19.42;;;;;;;;;;5072323;28;20055;-77
2022/12/16 04:28:52;;;;;;;58.50;21.20;;;;;;;;;;5071953;28;20496;-77
2022/12/16 04:31:19;;;;;;;49.58;18.80;;;;;;;;;;5071330;28;20135;-77
